sensor_id;sensor_type;location;lat;lon;timestamp;pressure;altitude;pressure_sealevel;temperature;humidity
23589;BME280;11972;48.078;11.876;2023-09-18T00:01:42;94239.44;;;16.36;100.00
23589;BME280;11972;48.078;11.876;2023-09-18T00:05:42;94226.59;;;16.33;100.00
23589;BME280;11972;48.078;11.876;2023-09-18T00:09:42;94223.41;;;16.31;100.00
23589;BME280;11972;48.078;11.876;2023-09-18T00:13:43;94226.31;;;16.30;100.00
23589;BME280;11972;48.078;11.876;2023-09-18T00:17:43;94210.03;;;16.26;100.00
23589;BME280;11972;48.078;11.876;2023-09-18T00:21:43;94206.78;;;16.24;100.00
23589;BME280;11972;48.078;11.876;2023-09-18T00:25:44;94188.91;;;16.20;100.00
23589;BME280;11972;48.078;11.876;2023-09-18T00:29:44;94179.00;;;16.15;100.00
23589;BME280;11972;48.078;11.876;2023-09-18T00:33:44;94149.06;;;16.08;100.00
23589;BME280;11972;48.078;11.876;2023-09-18T00:37:44;94123.69;;;16.00;100.00
23589;BME280;11972;48.078;11.876;2023-09-18T00:41:45;94093.00;;;15.93;100.00
23589;BME280;11972;48.078;11.876;2023-09-18T00:45:49;94079.63;;;15.87;100.00
23589;BME280;11972;48.078;11.876;2023-09-18T00:49:50;94054.00;;;15.81;100.00
23589;BME280;11972;48.078;11.876;2023-09-18T00:53:51;94049.19;;;15.78;100.00
23589;BME280;11972;48.078;11.876;2023-09-18T00:57:51;94027.28;;;15.71;100.00
23589;BME280;11972;48.078;11.876;2023-09-18T01:01:52;94008.59;;;15.66;100.00
23589;BME280;11972;48.078;11.876;2023-09-18T01:05:53;94005.34;;;15.64;100.00
23589;BME280;11972;48.078;11.876;2023-09-18T01:09:54;94009.06;;;15.63;100.00
23589;BME280;11972;48.078;11.876;2023-09-18T01:14:03;94021.31;;;15.64;100.00
23589;BME280;11972;48.078;11.876;2023-09-18T01:18:09;94021.81;;;15.61;100.00
23589;BME280;11972;48.078;11.876;2023-09-18T01:22:10;94021.81;;;15.61;100.00
23589;BME280;11972;48.078;11.876;2023-09-18T01:26:10;94013.25;;;15.59;100.00
23589;BME280;11972;48.078;11.876;2023-09-18T01:30:11;94029.81;;;15.61;100.00
23589;BME280;11972;48.078;11.876;2023-09-18T01:34:13;94036.19;;;15.60;100.00
23589;BME280;11972;48.078;11.876;2023-09-18T01:38:15;94044.16;;;15.60;100.00
23589;BME280;11972;48.078;11.876;2023-09-18T01:42:15;94055.34;;;15.62;100.00
23589;BME280;11972;48.078;11.876;2023-09-18T01:46:16;94042.00;;;15.57;100.00
23589;BME280;11972;48.078;11.876;2023-09-18T01:50:17;94029.19;;;15.54;100.00
23589;BME280;11972;48.078;11.876;2023-09-18T01:54:17;94006.25;;;15.48;100.00
23589;BME280;11972;48.078;11.876;2023-09-18T01:58:17;93975.78;;;15.38;100.00
23589;BME280;11972;48.078;11.876;2023-09-18T02:02:18;93954.72;;;15.32;100.00
23589;BME280;11972;48.078;11.876;2023-09-18T02:06:18;93934.44;;;15.26;100.00
23589;BME280;11972;48.078;11.876;2023-09-18T02:10:18;93909.66;;;15.20;100.00
23589;BME280;11972;48.078;11.876;2023-09-18T02:14:19;93902.16;;;15.17;100.00
23589;BME280;11972;48.078;11.876;2023-09-18T02:18:19;93890.41;;;15.13;100.00
23589;BME280;11972;48.078;11.876;2023-09-18T02:22:20;93872.03;;;15.06;100.00
23589;BME280;11972;48.078;11.876;2023-09-18T02:26:21;93851.50;;;15.02;100.00
23589;BME280;11972;48.078;11.876;2023-09-18T02:30:21;93818.19;;;14.94;100.00
23589;BME280;11972;48.078;11.876;2023-09-18T02:34:21;93804.03;;;14.88;100.00
23589;BME280;11972;48.078;11.876;2023-09-18T02:38:22;93813.63;;;14.89;100.00
23589;BME280;11972;48.078;11.876;2023-09-18T02:42:22;93824.78;;;14.92;100.00
23589;BME280;11972;48.078;11.876;2023-09-18T02:46:22;93813.06;;;14.87;100.00
23589;BME280;11972;48.078;11.876;2023-09-18T02:50:23;93796.00;;;14.83;100.00
23589;BME280;11972;48.078;11.876;2023-09-18T02:54:23;93769.38;;;14.78;100.00
23589;BME280;11972;48.078;11.876;2023-09-18T02:58:23;93768.81;;;14.76;100.00
23589;BME280;11972;48.078;11.876;2023-09-18T03:02:28;93754.44;;;14.72;100.00
23589;BME280;11972;48.078;11.876;2023-09-18T03:06:28;93746.97;;;14.69;100.00
23589;BME280;11972;48.078;11.876;2023-09-18T03:10:33;93730.97;;;14.64;100.00
23589;BME280;11972;48.078;11.876;2023-09-18T03:14:34;93720.88;;;14.61;100.00
23589;BME280;11972;48.078;11.876;2023-09-18T03:18:34;93711.53;;;14.58;100.00
23589;BME280;11972;48.078;11.876;2023-09-18T03:22:35;93697.41;;;14.53;100.00
23589;BME280;11972;48.078;11.876;2023-09-18T03:26:35;93679.31;;;14.50;100.00
23589;BME280;11972;48.078;11.876;2023-09-18T03:30:35;93677.91;;;14.47;100.00
23589;BME280;11972;48.078;11.876;2023-09-18T03:34:36;93676.06;;;14.48;100.00
23589;BME280;11972;48.078;11.876;2023-09-18T03:38:37;93692.31;;;14.51;100.00
23589;BME280;11972;48.078;11.876;2023-09-18T03:42:37;93689.94;;;14.50;100.00
23589;BME280;11972;48.078;11.876;2023-09-18T03:46:39;93659.28;;;14.42;100.00
23589;BME280;11972;48.078;11.876;2023-09-18T03:50:40;93643.03;;;14.38;100.00
23589;BME280;11972;48.078;11.876;2023-09-18T03:54:40;93629.72;;;14.33;100.00
23589;BME280;11972;48.078;11.876;2023-09-18T03:58:41;93613.47;;;14.30;100.00
23589;BME280;11972;48.078;11.876;2023-09-18T04:02:41;93605.22;;;14.26;100.00
23589;BME280;11972;48.078;11.876;2023-09-18T04:06:43;93600.97;;;14.25;100.00
23589;BME280;11972;48.078;11.876;2023-09-18T04:10:45;93583.94;;;14.21;100.00
23589;BME280;11972;48.078;11.876;2023-09-18T04:14:45;93574.88;;;14.17;100.00
23589;BME280;11972;48.078;11.876;2023-09-18T04:18:46;93563.69;;;14.15;100.00
23589;BME280;11972;48.078;11.876;2023-09-18T04:22:47;93553.59;;;14.12;100.00
23589;BME280;11972;48.078;11.876;2023-09-18T04:26:50;93534.94;;;14.07;100.00
23589;BME280;11972;48.078;11.876;2023-09-18T04:30:53;93540.81;;;14.09;100.00
23589;BME280;11972;48.078;11.876;2023-09-18T04:34:54;93544.25;;;14.09;100.00
23589;BME280;11972;48.078;11.876;2023-09-18T04:38:54;93527.25;;;14.05;100.00
23589;BME280;11972;48.078;11.876;2023-09-18T04:42:54;93524.06;;;14.03;100.00
23589;BME280;11972;48.078;11.876;2023-09-18T04:46:54;93522.44;;;14.02;100.00
23589;BME280;11972;48.078;11.876;2023-09-18T04:50:56;93509.69;;;13.99;100.00
23589;BME280;11972;48.078;11.876;2023-09-18T04:54:56;93518.44;;;14.00;100.00
23589;BME280;11972;48.078;11.876;2023-09-18T04:58:57;93522.44;;;14.02;100.00
23589;BME280;11972;48.078;11.876;2023-09-18T05:02:58;93534.41;;;14.05;100.00
23589;BME280;11972;48.078;11.876;2023-09-18T05:07:01;93558.34;;;14.10;100.00
23589;BME280;11972;48.078;11.876;2023-09-18T05:11:02;93579.59;;;14.15;100.00
23589;BME280;11972;48.078;11.876;2023-09-18T05:15:03;93620.03;;;14.22;100.00
23589;BME280;11972;48.078;11.876;2023-09-18T05:19:04;93653.63;;;14.33;100.00
23589;BME280;11972;48.078;11.876;2023-09-18T05:23:04;93708.97;;;14.47;100.00
23589;BME280;11972;48.078;11.876;2023-09-18T05:27:05;93762.53;;;14.60;100.00
23589;BME280;11972;48.078;11.876;2023-09-18T05:31:08;93827.28;;;14.76;100.00
23589;BME280;11972;48.078;11.876;2023-09-18T05:35:08;93888.06;;;14.89;100.00
23589;BME280;11972;48.078;11.876;2023-09-18T05:39:11;93944.03;;;15.05;100.00
23589;BME280;11972;48.078;11.876;2023-09-18T05:43:13;94014.97;;;15.21;100.00
23589;BME280;11972;48.078;11.876;2023-09-18T05:47:14;94107.84;;;15.45;100.00
23589;BME280;11972;48.078;11.876;2023-09-18T05:51:14;94226.41;;;15.74;100.00
23589;BME280;11972;48.078;11.876;2023-09-18T05:55:15;94329.00;;;15.99;100.00
23589;BME280;11972;48.078;11.876;2023-09-18T05:59:15;94435.91;;;16.24;100.00
23589;BME280;11972;48.078;11.876;2023-09-18T06:03:16;94562.19;;;16.57;100.00
23589;BME280;11972;48.078;11.876;2023-09-18T06:07:19;94696.03;;;16.88;100.00
23589;BME280;11972;48.078;11.876;2023-09-18T06:11:20;94830.28;;;17.22;100.00
23589;BME280;11972;48.078;11.876;2023-09-18T06:15:20;94963.47;;;17.52;100.00
23589;BME280;11972;48.078;11.876;2023-09-18T06:19:21;95073.78;;;17.81;100.00
23589;BME280;11972;48.078;11.876;2023-09-18T06:23:22;95166.69;;;18.02;100.00
23589;BME280;11972;48.078;11.876;2023-09-18T06:27:22;95258.28;;;18.26;100.00
23589;BME280;11972;48.078;11.876;2023-09-18T06:31:23;95345.91;;;18.48;100.00
23589;BME280;11972;48.078;11.876;2023-09-18T06:35:23;95424.13;;;18.67;100.00
23589;BME280;11972;48.078;11.876;2023-09-18T06:39:24;95476.59;;;18.79;100.00
23589;BME280;11972;48.078;11.876;2023-09-18T06:43:26;95546.59;;;19.00;100.00
23589;BME280;11972;48.078;11.876;2023-09-18T06:47:27;95598.53;;;19.11;100.00
23589;BME280;11972;48.078;11.876;2023-09-18T06:51:27;95641.13;;;19.24;100.00
23589;BME280;11972;48.078;11.876;2023-09-18T06:55:28;95709.22;;;19.40;100.00
23589;BME280;11972;48.078;11.876;2023-09-18T06:59:28;95783.31;;;19.57;100.00
23589;BME280;11972;48.078;11.876;2023-09-18T07:03:30;95832.19;;;19.71;100.00
23589;BME280;11972;48.078;11.876;2023-09-18T07:07:32;95818.19;;;19.69;100.00
23589;BME280;11972;48.078;11.876;2023-09-18T07:11:33;95777.88;;;19.64;100.00
23589;BME280;11972;48.078;11.876;2023-09-18T07:15:34;95766.34;;;19.64;100.00
23589;BME280;11972;48.078;11.876;2023-09-18T07:19:34;95806.19;;;19.72;100.00
23589;BME280;11972;48.078;11.876;2023-09-18T07:23:34;95873.69;;;19.92;100.00
23589;BME280;11972;48.078;11.876;2023-09-18T07:27:37;95980.72;;;20.17;100.00
23589;BME280;11972;48.078;11.876;2023-09-18T07:31:43;96145.41;;;20.58;100.00
23589;BME280;11972;48.078;11.876;2023-09-18T07:35:47;96346.91;;;21.05;100.00
23589;BME280;11972;48.078;11.876;2023-09-18T07:39:49;96507.00;;;21.43;100.00
23589;BME280;11972;48.078;11.876;2023-09-18T07:43:49;96605.53;;;21.67;100.00
23589;BME280;11972;48.078;11.876;2023-09-18T07:47:50;96657.31;;;21.81;100.00
23589;BME280;11972;48.078;11.876;2023-09-18T07:51:50;96708.25;;;21.94;100.00
23589;BME280;11972;48.078;11.876;2023-09-18T07:55:56;96750.31;;;22.07;100.00
23589;BME280;11972;48.078;11.876;2023-09-18T08:00:00;96798.59;;;22.20;100.00
23589;BME280;11972;48.078;11.876;2023-09-18T08:04:07;96862.03;;;22.35;100.00
23589;BME280;11972;48.078;11.876;2023-09-18T08:08:08;96929.31;;;22.53;100.00
23589;BME280;11972;48.078;11.876;2023-09-18T08:12:10;97017.53;;;22.76;100.00
23589;BME280;11972;48.078;11.876;2023-09-18T08:16:10;97118.25;;;23.00;100.00
23589;BME280;11972;48.078;11.876;2023-09-18T08:20:11;97148.22;;;23.10;100.00
23589;BME280;11972;48.078;11.876;2023-09-18T08:24:13;97108.09;;;23.02;100.00
23589;BME280;11972;48.078;11.876;2023-09-18T08:28:13;97108.47;;;23.06;100.00
23589;BME280;11972;48.078;11.876;2023-09-18T08:32:15;97209.22;;;23.30;100.00
23589;BME280;11972;48.078;11.876;2023-09-18T08:36:16;97336.91;;;23.60;100.00
23589;BME280;11972;48.078;11.876;2023-09-18T08:40:16;97536.88;;;24.09;100.00
23589;BME280;11972;48.078;11.876;2023-09-18T08:44:17;97735.59;;;24.55;100.00
23589;BME280;11972;48.078;11.876;2023-09-18T08:48:20;97800.75;;;24.71;100.00
23589;BME280;11972;48.078;11.876;2023-09-18T08:52:22;97770.44;;;24.69;100.00
23589;BME280;11972;48.078;11.876;2023-09-18T08:56:23;97733.47;;;24.63;100.00
23589;BME280;11972;48.078;11.876;2023-09-18T09:00:24;97711.84;;;24.63;100.00
23589;BME280;11972;48.078;11.876;2023-09-18T09:04:24;97678.22;;;24.59;100.00
23589;BME280;11972;48.078;11.876;2023-09-18T09:08:25;97642.91;;;24.54;100.00
23589;BME280;11972;48.078;11.876;2023-09-18T09:12:57;97546.22;;;24.38;100.00
23589;BME280;11972;48.078;11.876;2023-09-18T09:16:58;97443.75;;;24.18;100.00
23589;BME280;11972;48.078;11.876;2023-09-18T09:21:03;97420.28;;;24.18;100.00
23589;BME280;11972;48.078;11.876;2023-09-18T09:25:05;97391.47;;;24.12;100.00
23589;BME280;11972;48.078;11.876;2023-09-18T09:29:19;97347.09;;;24.08;100.00
23589;BME280;11972;48.078;11.876;2023-09-18T09:33:23;97444.25;;;24.33;100.00
23589;BME280;11972;48.078;11.876;2023-09-18T09:37:29;97470.75;;;24.43;100.00
23589;BME280;11972;48.078;11.876;2023-09-18T09:41:31;97483.38;;;24.49;100.00
23589;BME280;11972;48.078;11.876;2023-09-18T09:45:33;97518.81;;;24.59;100.00
23589;BME280;11972;48.078;11.876;2023-09-18T09:49:47;97576.03;;;24.74;100.00
23589;BME280;11972;48.078;11.876;2023-09-18T09:53:48;97615.84;;;24.86;100.00
23589;BME280;11972;48.078;11.876;2023-09-18T09:57:53;97694.91;;;25.06;100.00
23589;BME280;11972;48.078;11.876;2023-09-18T10:01:55;97668.88;;;25.05;100.00
23589;BME280;11972;48.078;11.876;2023-09-18T10:05:58;97614.28;;;24.96;100.00
23589;BME280;11972;48.078;11.876;2023-09-18T10:09:59;97435.88;;;24.60;100.00
23589;BME280;11972;48.078;11.876;2023-09-18T10:14:18;97432.13;;;24.61;100.00
23589;BME280;11972;48.078;11.876;2023-09-18T10:18:30;97368.88;;;24.50;100.00
23589;BME280;11972;48.078;11.876;2023-09-18T10:22:37;97445.69;;;24.72;100.00
23589;BME280;11972;48.078;11.876;2023-09-18T10:26:50;97584.03;;;25.06;100.00
23589;BME280;11972;48.078;11.876;2023-09-18T10:30:51;97710.44;;;25.36;100.00
23589;BME280;11972;48.078;11.876;2023-09-18T10:34:52;97703.97;;;25.37;100.00
23589;BME280;11972;48.078;11.876;2023-09-18T10:38:54;97692.09;;;25.38;100.00
23589;BME280;11972;48.078;11.876;2023-09-18T10:42:57;97632.31;;;25.28;100.00
23589;BME280;11972;48.078;11.876;2023-09-18T10:46:58;97546.34;;;25.11;100.00
23589;BME280;11972;48.078;11.876;2023-09-18T10:51:00;97495.25;;;25.03;100.00
23589;BME280;11972;48.078;11.876;2023-09-18T10:55:06;97496.47;;;25.07;100.00
23589;BME280;11972;48.078;11.876;2023-09-18T10:59:08;97531.91;;;25.17;100.00
23589;BME280;11972;48.078;11.876;2023-09-18T11:03:13;97447.88;;;25.00;100.00
23589;BME280;11972;48.078;11.876;2023-09-18T11:07:21;97381.91;;;24.90;100.00
23589;BME280;11972;48.078;11.876;2023-09-18T11:11:22;97273.69;;;24.66;100.00
23589;BME280;11972;48.078;11.876;2023-09-18T11:15:31;97280.28;;;24.70;100.00
23589;BME280;11972;48.078;11.876;2023-09-18T11:19:31;97306.38;;;24.76;100.00
23589;BME280;11972;48.078;11.876;2023-09-18T11:23:36;97318.75;;;24.84;100.00
23589;BME280;11972;48.078;11.876;2023-09-18T11:27:52;97393.34;;;25.04;100.00
23589;BME280;11972;48.078;11.876;2023-09-18T11:31:55;97379.22;;;25.01;100.00
23589;BME280;11972;48.078;11.876;2023-09-18T11:36:12;97423.19;;;25.15;100.00
23589;BME280;11972;48.078;11.876;2023-09-18T11:40:29;97483.69;;;25.33;100.00
23589;BME280;11972;48.078;11.876;2023-09-18T11:44:33;97511.47;;;25.40;100.00
23589;BME280;11972;48.078;11.876;2023-09-18T11:48:37;97379.31;;;25.13;100.00
23589;BME280;11972;48.078;11.876;2023-09-18T11:52:41;97358.16;;;25.10;100.00
23589;BME280;11972;48.078;11.876;2023-09-18T11:56:43;97234.75;;;24.86;100.00
23589;BME280;11972;48.078;11.876;2023-09-18T12:00:43;96942.78;;;24.22;100.00
23589;BME280;11972;48.078;11.876;2023-09-18T12:04:47;96865.44;;;24.04;100.00
23589;BME280;11972;48.078;11.876;2023-09-18T12:08:51;96773.59;;;23.87;100.00
23589;BME280;11972;48.078;11.876;2023-09-18T12:12:52;96526.13;;;23.31;100.00
23589;BME280;11972;48.078;11.876;2023-09-18T12:16:52;96350.72;;;22.92;100.00
23589;BME280;11972;48.078;11.876;2023-09-18T12:20:53;96281.47;;;22.75;100.00
23589;BME280;11972;48.078;11.876;2023-09-18T12:25:08;96169.53;;;22.51;100.00
23589;BME280;11972;48.078;11.876;2023-09-18T12:29:09;96025.00;;;22.18;100.00
23589;BME280;11972;48.078;11.876;2023-09-18T12:33:13;95845.94;;;21.76;100.00
23589;BME280;11972;48.078;11.876;2023-09-18T12:37:13;95679.25;;;21.38;100.00
23589;BME280;11972;48.078;11.876;2023-09-18T12:41:14;95593.78;;;21.18;100.00
23589;BME280;11972;48.078;11.876;2023-09-18T12:45:14;95467.72;;;20.89;100.00
23589;BME280;11972;48.078;11.876;2023-09-18T12:49:20;95346.31;;;20.60;100.00
23589;BME280;11972;48.078;11.876;2023-09-18T12:53:23;95192.13;;;20.24;100.00
23589;BME280;11972;48.078;11.876;2023-09-18T12:57:24;95063.13;;;19.93;100.00
23589;BME280;11972;48.078;11.876;2023-09-18T13:01:24;94981.13;;;19.70;100.00
23589;BME280;11972;48.078;11.876;2023-09-18T13:05:25;94926.88;;;19.58;100.00
23589;BME280;11972;48.078;11.876;2023-09-18T13:09:26;94863.50;;;19.42;100.00
23589;BME280;11972;48.078;11.876;2023-09-18T13:13:26;94784.06;;;19.20;100.00
23589;BME280;11972;48.078;11.876;2023-09-18T13:17:27;94669.84;;;18.94;100.00
23589;BME280;11972;48.078;11.876;2023-09-18T13:21:27;94496.09;;;18.45;100.00
23589;BME280;11972;48.078;11.876;2023-09-18T13:25:32;94262.13;;;17.84;100.00
23589;BME280;11972;48.078;11.876;2023-09-18T13:29:37;94105.44;;;17.43;100.00
23589;BME280;11972;48.078;11.876;2023-09-18T13:33:38;94024.19;;;17.18;100.00
23589;BME280;11972;48.078;11.876;2023-09-18T13:37:40;93958.47;;;16.97;100.00
23589;BME280;11972;48.078;11.876;2023-09-18T13:41:40;93941.09;;;16.89;100.00
23589;BME280;11972;48.078;11.876;2023-09-18T13:45:44;93937.84;;;16.82;100.00
23589;BME280;11972;48.078;11.876;2023-09-18T13:49:44;93948.22;;;16.78;100.00
23589;BME280;11972;48.078;11.876;2023-09-18T13:53:46;93975.97;;;16.82;100.00
23589;BME280;11972;48.078;11.876;2023-09-18T13:57:48;94027.22;;;16.90;100.00
23589;BME280;11972;48.078;11.876;2023-09-18T14:01:54;94078.47;;;16.97;100.00
23589;BME280;11972;48.078;11.876;2023-09-18T14:05:54;94117.44;;;17.03;100.00
23589;BME280;11972;48.078;11.876;2023-09-18T14:09:55;94203.72;;;17.19;100.00
23589;BME280;11972;48.078;11.876;2023-09-18T14:13:55;94370.88;;;17.57;100.00
23589;BME280;11972;48.078;11.876;2023-09-18T14:17:55;94439.06;;;17.70;100.00
23589;BME280;11972;48.078;11.876;2023-09-18T14:21:56;94466.88;;;17.74;100.00
23589;BME280;11972;48.078;11.876;2023-09-18T14:25:56;94565.94;;;17.94;100.00
23589;BME280;11972;48.078;11.876;2023-09-18T14:29:57;94636.34;;;18.10;100.00
23589;BME280;11972;48.078;11.876;2023-09-18T14:33:57;94723.66;;;18.26;100.00
23589;BME280;11972;48.078;11.876;2023-09-18T14:37:59;94894.16;;;18.63;100.00
23589;BME280;11972;48.078;11.876;2023-09-18T14:41:59;94943.56;;;18.72;100.00
23589;BME280;11972;48.078;11.876;2023-09-18T14:46:00;94971.97;;;18.78;100.00
23589;BME280;11972;48.078;11.876;2023-09-18T14:50:00;94953.41;;;18.72;100.00
23589;BME280;11972;48.078;11.876;2023-09-18T14:54:01;94914.75;;;18.63;100.00
23589;BME280;11972;48.078;11.876;2023-09-18T14:58:04;94867.25;;;18.48;100.00
23589;BME280;11972;48.078;11.876;2023-09-18T15:02:06;94817.34;;;18.37;100.00
23589;BME280;11972;48.078;11.876;2023-09-18T15:06:06;94848.97;;;18.40;100.00
23589;BME280;11972;48.078;11.876;2023-09-18T15:10:07;94846.28;;;18.40;100.00
23589;BME280;11972;48.078;11.876;2023-09-18T15:14:10;94789.94;;;18.24;100.00
23589;BME280;11972;48.078;11.876;2023-09-18T15:18:11;94735.22;;;18.10;100.00
23589;BME280;11972;48.078;11.876;2023-09-18T15:22:12;94695.28;;;17.98;100.00
23589;BME280;11972;48.078;11.876;2023-09-18T15:26:12;94656.94;;;17.88;100.00
23589;BME280;11972;48.078;11.876;2023-09-18T15:30:12;94617.81;;;17.76;100.00
23589;BME280;11972;48.078;11.876;2023-09-18T15:34:13;94601.13;;;17.69;100.00
23589;BME280;11972;48.078;11.876;2023-09-18T15:38:13;94556.09;;;17.56;100.00
23589;BME280;11972;48.078;11.876;2023-09-18T15:42:13;94524.50;;;17.48;100.00
23589;BME280;11972;48.078;11.876;2023-09-18T15:46:15;94498.25;;;17.40;100.00
23589;BME280;11972;48.078;11.876;2023-09-18T15:50:17;94471.22;;;17.31;100.00
23589;BME280;11972;48.078;11.876;2023-09-18T15:54:18;94453.53;;;17.25;100.00
23589;BME280;11972;48.078;11.876;2023-09-18T15:58:18;94447.09;;;17.21;100.00
23589;BME280;11972;48.078;11.876;2023-09-18T16:02:23;94449.44;;;17.17;100.00
23589;BME280;11972;48.078;11.876;2023-09-18T16:06:23;94410.94;;;17.08;100.00
23589;BME280;11972;48.078;11.876;2023-09-18T16:10:26;94390.03;;;17.00;100.00
23589;BME280;11972;48.078;11.876;2023-09-18T16:14:26;94401.50;;;17.00;100.00
23589;BME280;11972;48.078;11.876;2023-09-18T16:18:27;94406.25;;;16.98;100.00
23589;BME280;11972;48.078;11.876;2023-09-18T16:22:27;94380.84;;;16.91;100.00
23589;BME280;11972;48.078;11.876;2023-09-18T16:26:27;94354.59;;;16.82;100.00
23589;BME280;11972;48.078;11.876;2023-09-18T16:30:28;94362.06;;;16.80;100.00
23589;BME280;11972;48.078;11.876;2023-09-18T16:34:28;94366.81;;;16.78;100.00
23589;BME280;11972;48.078;11.876;2023-09-18T16:38:28;94361.22;;;16.75;100.00
23589;BME280;11972;48.078;11.876;2023-09-18T16:42:29;94357.13;;;16.72;100.00
23589;BME280;11972;48.078;11.876;2023-09-18T16:46:29;94369.44;;;16.73;100.00
23589;BME280;11972;48.078;11.876;2023-09-18T16:50:29;94388.09;;;16.73;100.00
23589;BME280;11972;48.078;11.876;2023-09-18T16:54:30;94383.78;;;16.72;100.00
23589;BME280;11972;48.078;11.876;2023-09-18T16:58:31;94381.06;;;16.67;100.00
23589;BME280;11972;48.078;11.876;2023-09-18T17:02:31;94378.91;;;16.64;100.00
23589;BME280;11972;48.078;11.876;2023-09-18T17:06:33;94354.28;;;16.57;100.00
23589;BME280;11972;48.078;11.876;2023-09-18T17:10:36;94337.41;;;16.51;100.00
23589;BME280;11972;48.078;11.876;2023-09-18T17:14:37;94336.03;;;16.49;100.00
23589;BME280;11972;48.078;11.876;2023-09-18T17:18:37;94321.59;;;16.45;100.00
23589;BME280;11972;48.078;11.876;2023-09-18T17:22:38;94321.53;;;16.40;100.00
23589;BME280;11972;48.078;11.876;2023-09-18T17:26:38;94313.81;;;16.38;100.00
23589;BME280;11972;48.078;11.876;2023-09-18T17:30:39;94312.69;;;16.34;100.00
23589;BME280;11972;48.078;11.876;2023-09-18T17:34:39;94319.63;;;16.35;100.00
23589;BME280;11972;48.078;11.876;2023-09-18T17:38:39;94327.38;;;16.36;100.00
23589;BME280;11972;48.078;11.876;2023-09-18T17:42:40;94340.47;;;16.38;100.00
23589;BME280;11972;48.078;11.876;2023-09-18T17:46:45;94344.16;;;16.37;100.00
23589;BME280;11972;48.078;11.876;2023-09-18T17:50:46;94347.88;;;16.36;100.00
23589;BME280;11972;48.078;11.876;2023-09-18T17:54:46;94341.75;;;16.35;100.00
23589;BME280;11972;48.078;11.876;2023-09-18T17:58:47;94344.41;;;16.35;100.00
23589;BME280;11972;48.078;11.876;2023-09-18T18:02:47;94344.66;;;16.34;100.00
23589;BME280;11972;48.078;11.876;2023-09-18T18:06:48;94342.22;;;16.32;100.00
23589;BME280;11972;48.078;11.876;2023-09-18T18:10:49;94329.44;;;16.29;100.00
23589;BME280;11972;48.078;11.876;2023-09-18T18:14:50;94323.53;;;16.27;100.00
23589;BME280;11972;48.078;11.876;2023-09-18T18:18:52;94309.34;;;16.22;100.00
23589;BME280;11972;48.078;11.876;2023-09-18T18:22:52;94294.66;;;16.19;100.00
23589;BME280;11972;48.078;11.876;2023-09-18T18:26:54;94282.88;;;16.15;100.00
23589;BME280;11972;48.078;11.876;2023-09-18T18:30:55;94282.06;;;16.15;100.00
23589;BME280;11972;48.078;11.876;2023-09-18T18:34:55;94278.59;;;16.14;100.00
23589;BME280;11972;48.078;11.876;2023-09-18T18:38:56;94276.44;;;16.11;100.00
23589;BME280;11972;48.078;11.876;2023-09-18T18:42:57;94260.69;;;16.09;100.00
23589;BME280;11972;48.078;11.876;2023-09-18T18:46:57;94271.59;;;16.08;100.00
23589;BME280;11972;48.078;11.876;2023-09-18T18:55:02;94272.16;;;16.10;100.00
23589;BME280;11972;48.078;11.876;2023-09-18T18:59:04;94267.31;;;16.07;100.00
23589;BME280;11972;48.078;11.876;2023-09-18T19:03:04;94247.81;;;16.01;100.00
23589;BME280;11972;48.078;11.876;2023-09-18T19:07:09;94240.06;;;16.00;100.00
23589;BME280;11972;48.078;11.876;2023-09-18T19:11:12;94241.69;;;16.01;100.00
23589;BME280;11972;48.078;11.876;2023-09-18T19:15:13;94242.72;;;16.00;100.00
23589;BME280;11972;48.078;11.876;2023-09-18T19:19:14;94232.31;;;15.98;100.00
23589;BME280;11972;48.078;11.876;2023-09-18T19:23:14;94230.94;;;15.96;100.00
23589;BME280;11972;48.078;11.876;2023-09-18T19:27:15;94213.84;;;15.92;100.00
23589;BME280;11972;48.078;11.876;2023-09-18T19:31:20;94193.06;;;15.88;100.00
23589;BME280;11972;48.078;11.876;2023-09-18T19:35:20;94185.78;;;15.84;100.00
23589;BME280;11972;48.078;11.876;2023-09-18T19:39:21;94171.13;;;15.81;100.00
23589;BME280;11972;48.078;11.876;2023-09-18T19:43:22;94160.97;;;15.78;100.00
23589;BME280;11972;48.078;11.876;2023-09-18T19:47:22;94170.34;;;15.81;100.00
23589;BME280;11972;48.078;11.876;2023-09-18T19:51:22;94179.13;;;15.81;100.00
23589;BME280;11972;48.078;11.876;2023-09-18T19:55:23;94184.19;;;15.83;100.00
23589;BME280;11972;48.078;11.876;2023-09-18T19:59:26;94192.97;;;15.83;100.00
23589;BME280;11972;48.078;11.876;2023-09-18T20:03:27;94209.03;;;15.88;100.00
23589;BME280;11972;48.078;11.876;2023-09-18T20:07:27;94212.72;;;15.87;100.00
23589;BME280;11972;48.078;11.876;2023-09-18T20:11:28;94196.44;;;15.84;100.00
23589;BME280;11972;48.078;11.876;2023-09-18T20:15:29;94195.66;;;15.83;100.00
23589;BME280;11972;48.078;11.876;2023-09-18T20:19:31;94182.00;;;15.80;100.00
23589;BME280;11972;48.078;11.876;2023-09-18T20:23:31;94186.31;;;15.81;100.00
23589;BME280;11972;48.078;11.876;2023-09-18T20:27:32;94182.84;;;15.80;100.00
23589;BME280;11972;48.078;11.876;2023-09-18T20:31:35;94194.03;;;15.82;100.00
23589;BME280;11972;48.078;11.876;2023-09-18T20:35:36;94193.25;;;15.82;100.00
23589;BME280;11972;48.078;11.876;2023-09-18T20:39:38;94197.50;;;15.83;100.00
23589;BME280;11972;48.078;11.876;2023-09-18T20:43:38;94209.53;;;15.85;100.00
23589;BME280;11972;48.078;11.876;2023-09-18T20:47:43;94204.19;;;15.85;100.00
23589;BME280;11972;48.078;11.876;2023-09-18T20:51:44;94194.63;;;15.84;100.00